Time;durP1;ratioP1;P1;durP2;ratioP2;P2;SDS_P1;SDS_P2;PMS_P1;PMS_P2;Temp;Humidity;BMP_temperature;BMP_pressure;BME280_temperature;BME280_humidity;BME280_pressure;Samples;Min_cycle;Max_cycle;Signal;HPM_P1;HPM_P2
2021/08/21 00:00:53;;;;;;;;;0.75;0.00;;;;;20.37;54.93;101331.31;5049199;28;45459;-80
2021/08/21 00:03:18;;;;;;;;;0.00;0.00;;;;;20.47;54.88;101351.38;5033431;28;46485;-81
2021/08/21 00:05:44;;;;;;;;;0.75;0.00;;;;;20.46;55.11;101344.31;5054853;28;46963;-80
2021/08/21 00:08:09;;;;;;;;;1.00;0.00;;;;;20.02;55.59;101275.72;5053244;28;45431;-80
2021/08/21 00:10:35;;;;;;;;;0.50;0.00;;;;;20.33;55.43;101338.44;5050993;28;45519;-80
2021/08/21 00:13:01;;;;;;;;;0.00;0.00;;;;;20.39;55.35;101358.59;5048342;28;45469;-80
2021/08/21 00:15:27;;;;;;;;;0.00;0.00;;;;;20.15;55.46;101321.22;5050828;28;45372;-80
2021/08/21 00:17:54;;;;;;;;;0.00;0.00;;;;;20.35;55.43;101344.56;5055047;28;45461;-80
2021/08/21 00:20:19;;;;;;;;;0.00;0.00;;;;;20.06;55.65;101308.22;5069771;28;45389;-80
2021/08/21 00:22:45;;;;;;;;;0.25;0.00;;;;;20.34;55.82;101347.25;5052681;28;46133;-80
2021/08/21 00:25:12;;;;;;;;;0.00;0.00;;;;;19.88;55.51;101271.56;5051501;28;45362;-80
2021/08/21 00:27:38;;;;;;;;;0.00;0.00;;;;;20.23;56.15;101337.78;5051508;28;45270;-80
2021/08/21 00:30:04;;;;;;;;;0.75;0.75;;;;;20.23;55.88;101339.56;5053083;28;45532;-80
2021/08/21 00:32:31;;;;;;;;;0.00;0.00;;;;;19.78;55.89;101270.03;5054935;28;45521;-80
2021/08/21 00:34:56;;;;;;;;;0.00;0.00;;;;;19.95;55.88;101306.66;5053837;28;45387;-80
2021/08/21 00:37:22;;;;;;;;;0.00;0.00;;;;;19.65;56.46;101250.94;5050561;28;49102;-79
2021/08/21 00:39:47;;;;;;;;;1.25;1.00;;;;;19.71;56.51;101279.88;5050547;28;45420;-79
2021/08/21 00:42:12;;;;;;;;;0.00;0.00;;;;;19.78;56.81;101298.22;5050815;28;46132;-80
2021/08/21 00:44:39;;;;;;;;;0.00;0.00;;;;;19.71;56.74;101290.44;5035879;28;45501;-80
2021/08/21 00:47:04;;;;;;;;;0.75;0.25;;;;;19.87;56.78;101319.16;5053752;28;45570;-80
2021/08/21 00:49:30;;;;;;;;;0.25;0.00;;;;;19.43;57.19;101256.69;5043775;28;45348;-79
2021/08/21 00:52:00;;;;;;;;;0.00;0.00;;;;;19.75;57.15;101315.88;5041870;28;45391;-80
2021/08/21 00:54:26;;;;;;;;;0.50;0.50;;;;;19.41;57.47;101274.31;5042515;28;45461;-80
2021/08/21 00:56:53;;;;;;;;;0.00;0.00;;;;;19.66;57.61;101316.06;5051747;28;45497;-79
2021/08/21 00:59:18;;;;;;;;;0.00;0.00;;;;;19.52;57.45;101291.69;5051859;28;45437;-79
2021/08/21 01:01:44;;;;;;;;;0.75;0.75;;;;;19.66;57.56;101320.47;5041510;28;45525;-79
2021/08/21 01:04:09;;;;;;;;;0.25;0.25;;;;;19.67;57.61;101319.56;5041896;28;45490;-80
2021/08/21 01:06:35;;;;;;;;;1.50;1.00;;;;;19.63;57.86;101314.34;5041798;28;45407;-80
2021/08/21 01:09:01;;;;;;;;;0.00;0.00;;;;;19.34;57.64;101275.34;5041828;28;45385;-80
2021/08/21 01:11:26;;;;;;;;;0.25;0.00;;;;;19.54;57.81;101317.16;5037417;28;48198;-79
2021/08/21 01:13:51;;;;;;;;;0.00;0.00;;;;;19.27;57.79;101269.31;5041810;28;45696;-80
2021/08/21 01:16:20;;;;;;;;;1.00;0.75;;;;;19.49;58.00;101313.75;5048088;28;45441;-79
2021/08/21 01:18:46;;;;;;;;;0.00;0.00;;;;;19.44;57.99;101315.59;5048469;28;45493;-80
2021/08/21 01:21:12;;;;;;;;;0.00;0.00;;;;;19.42;58.32;101313.00;5038773;28;51749;-79
2021/08/21 01:23:37;;;;;;;;;0.00;0.00;;;;;19.32;58.18;101306.16;5055014;28;45727;-79
2021/08/21 01:26:03;;;;;;;;;0.00;0.00;;;;;19.03;58.43;101283.78;5053039;28;45490;-80
2021/08/21 01:28:28;;;;;;;;;1.00;0.00;;;;;19.12;58.44;101292.44;5032157;28;45703;-79
2021/08/21 01:30:53;;;;;;;;;2.25;0.00;;;;;19.02;58.62;101276.78;5045511;28;46250;-79
2021/08/21 01:33:19;;;;;;;;;0.00;0.00;;;;;19.24;58.75;101308.97;5041445;28;45405;-80
2021/08/21 01:35:44;;;;;;;;;0.00;0.00;;;;;19.24;58.83;101301.88;5037713;28;45714;-80
2021/08/21 01:38:09;;;;;;;;;1.25;0.00;;;;;19.23;58.74;101310.72;5040521;28;45407;-79
2021/08/21 01:40:34;;;;;;;;;0.50;0.50;;;;;19.01;58.88;101269.78;5045283;28;45381;-79
2021/08/21 01:43:00;;;;;;;;;0.00;0.00;;;;;19.11;59.08;101300.38;5050056;28;45426;-80
2021/08/21 01:45:25;;;;;;;;;0.00;0.00;;;;;18.41;59.05;101189.03;5050236;28;45490;-80
2021/08/21 01:47:50;;;;;;;;;0.00;0.00;;;;;18.49;59.09;101196.81;5052162;28;45483;-80
2021/08/21 01:50:19;;;;;;;;;2.00;0.00;;;;;18.59;59.30;101219.50;5053132;28;46002;-80
2021/08/21 01:52:47;;;;;;;;;0.00;0.00;;;;;18.94;59.39;101287.47;5051483;28;45504;-80
2021/08/21 01:55:13;;;;;;;;;0.00;0.00;;;;;18.64;59.48;101213.25;5049343;28;45395;-81
2021/08/21 01:57:40;;;;;;;;;0.00;0.00;;;;;19.11;59.22;101297.75;5049989;28;45416;-80
2021/08/21 02:00:08;;;;;;;;;0.00;0.00;;;;;18.78;59.56;101247.31;5047192;28;47571;-80
2021/08/21 02:02:33;;;;;;;;;0.00;0.00;;;;;18.43;59.11;101196.91;5038062;28;45590;-81
2021/08/21 02:04:58;;;;;;;;;0.00;0.00;;;;;18.39;59.80;101188.22;5054949;28;45490;-80
2021/08/21 02:07:23;;;;;;;;;0.00;0.00;;;;;18.87;59.47;101265.63;5031195;28;45443;-80
2021/08/21 02:09:49;;;;;;;;;0.00;0.00;;;;;18.55;59.58;101216.94;5053124;28;46438;-80
2021/08/21 02:12:16;;;;;;;;;0.00;0.00;;;;;18.66;59.44;101238.72;5048458;28;45477;-80
2021/08/21 02:14:41;;;;;;;;;0.00;0.00;;;;;18.31;59.49;101172.53;5051750;28;45463;-80
2021/08/21 02:17:07;;;;;;;;;0.00;0.00;;;;;18.65;59.67;101228.22;5055583;28;45469;-80
2021/08/21 02:19:32;;;;;;;;;0.00;0.00;;;;;18.43;59.65;101202.19;5050394;28;49435;-80
2021/08/21 02:22:00;;;;;;;;;0.00;0.00;;;;;18.78;59.53;101260.50;5046895;28;45683;-79
2021/08/21 02:24:25;;;;;;;;;0.00;0.00;;;;;17.90;60.01;101113.44;5041631;28;45763;-80
2021/08/21 02:26:52;;;;;;;;;12.50;9.50;;;;;18.23;59.86;101180.53;5043348;28;45474;-78
2021/08/21 02:29:18;;;;;;;;;2.50;0.00;;;;;18.72;60.32;101264.97;5035538;28;46186;-78
2021/08/21 02:31:43;;;;;;;;;0.25;0.00;;;;;18.55;60.44;101246.81;5038040;28;45430;-78
2021/08/21 02:34:09;;;;;;;;;0.00;0.00;;;;;18.85;60.53;101291.13;5037618;28;46295;-79
2021/08/21 02:36:34;;;;;;;;;0.00;0.00;;;;;18.64;60.63;101266.88;5041026;28;45462;-79
2021/08/21 02:39:00;;;;;;;;;0.00;0.00;;;;;18.76;60.60;101288.66;5038181;28;45915;-79
2021/08/21 02:41:26;;;;;;;;;0.00;0.00;;;;;18.70;60.81;101276.44;5036139;28;45556;-78
2021/08/21 02:43:52;;;;;;;;;0.00;0.00;;;;;18.49;61.04;101245.16;5041957;28;45535;-78
2021/08/21 02:46:17;;;;;;;;;0.00;0.00;;;;;18.18;60.57;101206.13;5041478;28;45492;-79
2021/08/21 02:48:43;;;;;;;;;0.00;0.00;;;;;18.18;60.42;101206.13;5041002;28;45534;-78
2021/08/21 02:51:08;;;;;;;;;0.00;0.00;;;;;18.55;60.77;101265.25;5040838;28;45458;-79
2021/08/21 02:53:34;;;;;;;;;0.00;0.00;;;;;18.25;60.83;101204.25;5041906;28;45496;-79
2021/08/21 02:56:02;;;;;;;;;0.00;0.00;;;;;18.64;60.69;101273.91;5042942;28;45391;-79
2021/08/21 02:58:28;;;;;;;;;0.00;0.00;;;;;18.25;60.86;101232.38;5041118;28;45714;-79
2021/08/21 03:00:53;;;;;;;;;0.00;0.00;;;;;18.56;61.12;101285.44;5042130;28;45427;-79
2021/08/21 03:03:19;;;;;;;;;0.00;0.00;;;;;17.83;60.87;101175.88;5041925;28;45533;-79
2021/08/21 03:05:44;;;;;;;;;0.50;0.00;;;;;18.52;61.29;101275.84;5039501;28;45512;-80
2021/08/21 03:08:09;;;;;;;;;0.00;0.00;;;;;18.47;61.22;101268.00;5041435;28;46101;-79
2021/08/21 03:10:35;;;;;;;;;0.00;0.00;;;;;18.45;60.74;101247.84;5041269;28;45447;-79
2021/08/21 03:13:02;;;;;;;;;0.00;0.00;;;;;18.02;61.21;101175.59;5041924;28;45424;-79
2021/08/21 03:15:28;;;;;;;;;0.00;0.00;;;;;17.98;61.30;101172.16;5039808;28;45587;-79
2021/08/21 03:17:54;;;;;;;;;0.00;0.00;;;;;17.79;61.05;101139.97;5040281;28;45308;-79
2021/08/21 03:20:19;;;;;;;;;0.00;0.00;;;;;18.57;60.97;101266.13;5038345;28;46063;-79
2021/08/21 03:22:45;;;;;;;;;1.50;0.00;;;;;17.88;61.56;101158.25;5046890;28;45889;-79
2021/08/21 03:25:10;;;;;;;;;0.25;0.00;;;;;18.21;60.99;101208.69;5053546;28;45330;-80
2021/08/21 03:27:36;;;;;;;;;0.00;0.00;;;;;17.80;61.58;101136.44;5051994;28;45359;-79
2021/08/21 03:30:02;;;;;;;;;0.00;0.00;;;;;18.66;61.09;101267.72;5053183;28;45372;-79
2021/08/21 03:32:28;;;;;;;;;0.00;0.00;;;;;17.94;61.40;101133.56;5055457;28;45332;-79
2021/08/21 03:34:53;;;;;;;;;0.00;0.00;;;;;17.94;60.75;101126.53;5054630;28;45452;-79
2021/08/21 03:37:19;;;;;;;;;0.00;0.00;;;;;17.94;60.64;101133.56;5047201;28;47374;-80
2021/08/21 03:39:44;;;;;;;;;0.00;0.00;;;;;18.37;61.08;101192.63;5046070;28;45485;-79
2021/08/21 03:42:10;;;;;;;;;0.00;0.00;;;;;18.26;60.69;101178.78;5052288;28;45638;-79
2021/08/21 03:44:35;;;;;;;;;0.00;0.00;;;;;18.60;60.70;101241.47;5040775;28;45432;-80
2021/08/21 03:47:01;;;;;;;;;0.50;0.00;;;;;18.29;60.72;101190.16;5040709;28;46331;-80
2021/08/21 03:49:26;;;;;;;;;0.00;0.00;;;;;18.42;60.53;101208.38;5051718;28;45469;-80
2021/08/21 03:51:51;;;;;;;;;1.00;0.00;;;;;17.96;60.53;101132.69;5052127;28;45843;-79
2021/08/21 03:54:17;;;;;;;;;0.00;0.00;;;;;18.49;61.14;101239.88;5053932;28;45644;-80
2021/08/21 03:56:43;;;;;;;;;0.00;0.00;;;;;18.00;60.58;101133.47;5039613;28;45479;-79
2021/08/21 03:59:08;;;;;;;;;0.00;0.00;;;;;18.47;60.84;101215.28;5040588;28;45403;-79
2021/08/21 04:01:33;;;;;;;;;0.00;0.00;;;;;18.67;60.31;101247.50;5043282;28;45574;-80
2021/08/21 04:03:59;;;;;;;;;0.00;0.00;;;;;18.31;60.54;101211.16;5043718;28;45509;-80
2021/08/21 04:06:24;;;;;;;;;0.00;0.00;;;;;18.46;60.57;101224.09;5043176;28;45368;-80
2021/08/21 04:08:50;;;;;;;;;0.00;0.00;;;;;18.18;60.86;101195.56;5036449;28;45667;-80
2021/08/21 04:11:16;;;;;;;;;0.00;0.00;;;;;18.13;60.78;101184.22;5040825;28;45403;-78
2021/08/21 04:13:41;;;;;;;;;0.25;0.00;;;;;18.34;61.17;101221.66;5053175;28;45414;-79
2021/08/21 04:16:07;;;;;;;;;0.00;0.00;;;;;17.89;61.31;101154.72;5033067;28;47920;-80
2021/08/21 04:18:32;;;;;;;;;0.00;0.00;;;;;18.33;61.15;101236.63;5051748;28;45454;-78
2021/08/21 04:20:58;;;;;;;;;0.00;0.00;;;;;18.31;61.16;101237.53;5053351;28;45378;-79
2021/08/21 04:23:23;;;;;;;;;0.00;0.00;;;;;18.23;61.50;101238.50;5054511;28;45526;-78
2021/08/21 04:25:49;;;;;;;;;0.00;0.00;;;;;17.01;61.64;101038.41;5053776;28;45465;-78
2021/08/21 04:28:15;;;;;;;;;0.25;0.00;;;;;17.78;61.59;101182.97;5051242;28;45905;-80
2021/08/21 04:30:40;;;;;;;;;0.00;0.00;;;;;17.47;61.82;101122.00;5034246;28;45564;-77
2021/08/21 04:33:05;;;;;;;;;0.00;0.00;;;;;17.56;61.84;101139.41;5042693;28;45581;-77
2021/08/21 04:35:31;;;;;;;;;0.00;0.00;;;;;17.84;61.93;101174.97;5038722;28;51634;-80
2021/08/21 04:37:57;;;;;;;;;0.00;0.00;;;;;18.17;61.72;101225.47;5042344;28;45372;-80
2021/08/21 04:40:23;;;;;;;;;0.00;0.00;;;;;18.18;62.06;101228.94;5045233;28;45376;-80
2021/08/21 04:42:48;;;;;;;;;0.00;0.00;;;;;18.20;61.55;101230.69;5042619;28;45459;-80
2021/08/21 04:45:13;;;;;;;;;0.00;0.00;;;;;18.17;61.82;101220.19;5042588;28;46622;-79
2021/08/21 04:47:39;;;;;;;;;0.00;0.00;;;;;17.96;61.53;101184.47;5039603;28;45593;-80
2021/08/21 04:50:05;;;;;;;;;0.00;0.00;;;;;17.75;61.56;101154.03;5053678;28;45336;-79
2021/08/21 04:52:30;;;;;;;;;0.00;0.00;;;;;17.75;61.61;101154.03;5051083;28;45612;-79
2021/08/21 04:54:56;;;;;;;;;0.00;0.00;;;;;17.86;61.34;101178.47;5050607;28;45422;-80
2021/08/21 04:57:22;;;;;;;;;0.00;0.00;;;;;17.58;61.74;101126.22;5050491;28;45449;-80
2021/08/21 04:59:47;;;;;;;;;0.00;0.00;;;;;18.25;61.56;101235.84;5054341;28;45433;-79
2021/08/21 05:02:12;;;;;;;;;0.00;0.00;;;;;17.49;61.66;101111.44;5053795;28;45691;-79
2021/08/21 05:04:38;;;;;;;;;0.00;0.00;;;;;17.75;61.67;101157.56;5042209;28;46262;-79
2021/08/21 05:07:03;;;;;;;;;0.00;0.00;;;;;17.51;62.10;101130.69;5042450;28;45507;-80
2021/08/21 05:09:29;;;;;;;;;0.00;0.00;;;;;17.55;61.93;101152.59;5042534;28;45422;-79
2021/08/21 05:11:54;;;;;;;;;0.00;0.00;;;;;17.43;61.83;101141.31;5040087;28;45880;-80
2021/08/21 05:14:19;;;;;;;;;0.00;0.00;;;;;17.37;62.09;101137.91;5039638;28;45569;-79
2021/08/21 05:16:46;;;;;;;;;0.00;0.00;;;;;17.82;62.10;101205.72;5041450;28;51345;-80
2021/08/21 05:24:55;;;;;;;;;0.00;0.00;;;;;18.12;61.64;101229.91;4993995;28;45942;-80
2021/08/21 05:27:22;;;;;;;;;0.00;0.00;;;;;18.12;61.65;101227.28;4993641;28;45671;-80
2021/08/21 05:29:47;;;;;;;;;0.00;0.00;;;;;18.16;61.88;101242.13;4994342;28;45374;-79
2021/08/21 05:32:13;;;;;;;;;0.25;0.00;;;;;17.55;61.81;101145.53;4994887;28;45782;-80
2021/08/21 05:34:38;;;;;;;;;0.00;0.00;;;;;18.01;62.04;101222.13;4990670;28;46218;-79
2021/08/21 05:37:04;;;;;;;;;0.00;0.00;;;;;18.19;62.41;101255.28;4993118;28;46722;-80
2021/08/21 05:39:32;;;;;;;;;0.00;0.00;;;;;18.21;61.69;101249.97;4990950;28;45513;-79
2021/08/21 05:41:58;;;;;;;;;0.00;0.00;;;;;18.23;62.36;101254.31;5006290;28;45708;-79
2021/08/21 05:44:26;;;;;;;;;0.00;0.00;;;;;18.13;62.30;101228.16;4993939;28;45496;-80
2021/08/21 05:46:51;;;;;;;;;0.00;0.00;;;;;17.97;61.73;101196.72;4994803;28;45528;-80
2021/08/21 05:49:17;;;;;;;;;1.50;0.00;;;;;18.35;61.77;101257.69;4992596;28;46781;-80
2021/08/21 05:51:42;;;;;;;;;0.00;0.00;;;;;18.37;61.77;101253.25;4991787;28;45336;-80
2021/08/21 05:54:07;;;;;;;;;0.00;0.00;;;;;18.40;61.70;101244.44;4989590;28;45489;-79
2021/08/21 05:56:33;;;;;;;;;0.00;0.00;;;;;18.46;61.72;101250.47;4993303;28;45497;-79
2021/08/21 05:58:58;;;;;;;;;0.00;0.00;;;;;18.47;61.68;101257.47;4994226;28;45914;-79
2021/08/21 06:01:23;;;;;;;;;0.50;0.00;;;;;18.47;61.64;101248.72;5007826;28;45466;-79
2021/08/21 06:03:51;;;;;;;;;0.00;0.00;;;;;18.22;61.47;101207.78;5052536;28;46219;-79
2021/08/21 06:06:19;;;;;;;;;0.00;0.00;;;;;18.51;61.47;101249.50;5049507;28;45538;-80
2021/08/21 06:09:06;;;;;;;;;0.25;0.00;;;;;18.56;61.47;101258.25;5053600;28;45308;-80
2021/08/21 06:11:32;;;;;;;;;0.00;0.00;;;;;18.25;61.77;101204.25;5019947;28;45429;-79
2021/08/21 06:13:57;;;;;;;;;0.00;0.00;;;;;18.37;61.54;101221.63;5048726;28;46127;-80
2021/08/21 06:16:22;;;;;;;;;0.00;0.00;;;;;18.24;61.29;101186.69;5049861;28;45443;-77
2021/08/21 06:18:48;;;;;;;;;0.00;0.00;;;;;18.72;61.44;101258.84;5034038;28;46766;-78
2021/08/21 06:21:13;;;;;;;;;0.00;0.00;;;;;18.74;61.58;101255.28;5035352;28;45527;-78
2021/08/21 06:23:39;;;;;;;;;0.00;0.00;;;;;18.56;61.09;101210.78;5056703;28;46317;-78
2021/08/21 06:26:04;;;;;;;;;0.00;0.00;;;;;18.80;61.08;101235.81;5055453;28;45539;-79
2021/08/21 06:28:30;;;;;;;;;0.00;0.00;;;;;18.93;60.86;101247.03;5053099;28;45523;-79
2021/08/21 06:30:55;;;;;;;;;1.00;0.00;;;;;19.05;60.73;101253.00;5052194;28;45307;-80
2021/08/21 06:33:20;;;;;;;;;0.00;0.00;;;;;18.82;61.07;101215.59;5057683;28;45467;-81
2021/08/21 06:35:46;;;;;;;;;0.00;0.00;;;;;19.14;60.51;101255.47;5056387;28;45494;-80
2021/08/21 06:38:11;;;;;;;;;0.00;0.00;;;;;19.21;60.60;101262.34;5055827;28;45789;-79
2021/08/21 06:40:36;;;;;;;;;0.00;0.00;;;;;18.87;60.47;101181.22;5043960;28;45400;-80
2021/08/21 06:43:02;;;;;;;;;1.75;0.00;;;;;19.31;60.48;101249.00;5052931;28;46311;-80
2021/08/21 06:45:27;;;;;;;;;0.00;0.00;;;;;19.30;60.21;101237.59;5053060;28;45399;-80
2021/08/21 06:47:55;;;;;;;;;0.00;0.00;;;;;19.15;60.25;101195.66;5036969;28;49655;-81
2021/08/21 06:50:21;;;;;;;;;0.00;0.00;;;;;18.90;60.30;101152.16;5036222;28;45218;-80
2021/08/21 06:52:46;;;;;;;;;0.00;0.00;;;;;19.58;59.88;101250.22;5053821;28;45347;-78
2021/08/21 06:55:12;;;;;;;;;0.00;0.00;;;;;19.33;59.81;101191.78;5048615;28;45454;-82
2021/08/21 06:57:37;;;;;;;;;0.00;0.00;;;;;19.74;59.76;101242.84;5046751;28;47000;-79
2021/08/21 07:00:03;;;;;;;;;0.00;0.00;;;;;19.79;59.64;101237.44;5056681;28;45699;-84
2021/08/21 07:02:28;;;;;;;;;0.00;0.00;;;;;19.82;59.44;101225.94;5058587;28;46048;-83
2021/08/21 07:04:54;;;;;;;;;0.00;0.00;;;;;19.96;58.96;101236.19;5058215;28;45434;-83
2021/08/21 07:07:19;;;;;;;;;0.00;0.00;;;;;20.07;59.00;101231.56;5048860;28;45472;-84
2021/08/21 07:09:44;;;;;;;;;0.50;0.50;;;;;20.22;58.70;101227.66;5053539;28;45564;-86
2021/08/21 07:12:11;;;;;;;;;0.00;0.00;;;;;20.16;58.40;101196.13;5056229;28;51395;-84
2021/08/21 07:14:36;;;;;;;;;0.00;0.00;;;;;20.39;57.85;101213.16;5054877;28;45443;-84
2021/08/21 07:17:01;;;;;;;;;0.00;0.00;;;;;20.57;58.31;101237.41;5040459;28;45364;-84
2021/08/21 07:19:27;;;;;;;;;0.00;0.00;;;;;20.63;57.93;101240.78;5053561;28;45520;-83
2021/08/21 07:21:53;;;;;;;;;0.00;0.00;;;;;20.64;57.87;101228.41;5052001;28;45426;-83
2021/08/21 07:24:19;;;;;;;;;0.00;0.00;;;;;20.76;57.58;101241.31;5055762;28;45431;-83
2021/08/21 07:26:44;;;;;;;;;0.00;0.00;;;;;20.85;56.48;101244.63;5058032;27;45797;-84
2021/08/21 07:29:10;;;;;;;;;0.00;0.00;;;;;20.84;57.06;101235.84;5056861;28;45392;-83
2021/08/21 07:31:35;;;;;;;;;1.00;0.00;;;;;20.99;57.25;101241.66;5034552;28;45388;-85
2021/08/21 07:34:00;;;;;;;;;0.00;0.00;;;;;20.77;57.11;101197.22;5052403;28;49063;-87
2021/08/21 07:36:26;;;;;;;;;0.00;0.00;;;;;20.48;56.80;101141.56;5058974;28;45843;-87
2021/08/21 07:38:52;;;;;;;;;0.00;0.00;;;;;20.93;56.28;101204.75;5040294;28;46658;-91
2021/08/21 07:41:18;;;;;;;;;0.75;0.00;;;;;21.08;56.38;101225.53;5058473;28;46061;-89
2021/08/21 07:43:43;;;;;;;;;0.50;0.00;;;;;21.32;56.46;101256.63;5054785;28;45403;-89
2021/08/21 07:46:08;;;;;;;;;0.00;0.00;;;;;21.03;55.86;101190.38;5053843;28;45474;-91
2021/08/21 07:48:34;;;;;;;;;0.00;0.00;;;;;21.05;56.08;101204.44;5035479;28;45601;-88
2021/08/21 07:50:59;;;;;;;;;2.00;0.00;;;;;20.81;55.60;101174.19;5056646;28;46655;-88
2021/08/21 07:53:24;;;;;;;;;0.00;0.00;;;;;20.67;55.88;101148.13;5042972;28;46158;-90
2021/08/21 07:55:50;;;;;;;;;0.00;0.00;;;;;21.14;55.99;101222.69;5069129;28;45358;-87
2021/08/21 07:58:15;;;;;;;;;1.25;0.00;;;;;21.22;55.99;101218.97;5042680;28;45261;-87
2021/08/21 08:00:40;;;;;;;;;0.00;0.00;;;;;21.25;55.33;101214.44;5053278;28;45389;-87
2021/08/21 08:03:06;;;;;;;;;0.00;0.00;;;;;21.48;55.47;101246.47;5057117;28;58756;-87
2021/08/21 08:05:31;;;;;;;;;0.00;0.00;;;;;21.50;55.68;101252.59;5042010;28;45344;-86
2021/08/21 08:07:57;;;;;;;;;0.00;0.00;;;;;21.38;55.70;101222.06;5057573;28;45450;-86
2021/08/21 08:10:22;;;;;;;;;0.00;0.00;;;;;21.56;55.13;101244.44;5035799;28;47246;-84
2021/08/21 08:12:48;;;;;;;;;0.00;0.00;;;;;21.08;55.20;101162.00;5042206;28;45626;-88
2021/08/21 08:15:14;;;;;;;;;0.00;0.00;;;;;21.53;55.28;101236.59;5049088;28;45366;-87
2021/08/21 08:17:40;;;;;;;;;0.00;0.00;;;;;21.42;55.14;101225.47;5039932;28;45501;-85
2021/08/21 08:20:06;;;;;;;;;0.00;0.00;;;;;21.64;55.19;101247.75;5058432;28;46460;-83
2021/08/21 08:22:32;;;;;;;;;0.00;0.00;;;;;21.75;54.63;101249.25;5059507;28;45490;-89
2021/08/21 08:24:58;;;;;;;;;0.00;0.00;;;;;21.57;54.94;101206.47;5057980;28;45607;-88
2021/08/21 08:27:23;;;;;;;;;0.00;0.00;;;;;21.84;54.37;101238.34;5050840;28;45629;-87
2021/08/21 08:29:48;;;;;;;;;0.00;0.00;;;;;21.87;54.19;101226.81;5028761;28;47020;-84
2021/08/21 08:32:14;;;;;;;;;0.00;0.00;;;;;21.96;54.47;101233.59;5034227;28;55387;-87
2021/08/21 08:34:39;;;;;;;;;0.00;0.00;;;;;22.08;54.70;101224.38;5052262;28;45344;-86
2021/08/21 08:37:09;;;;;;;;;0.00;0.00;;;;;22.24;54.20;101241.50;5052307;28;45486;-85
2021/08/21 08:39:35;;;;;;;;;0.00;0.00;;;;;22.27;54.55;101222.00;5037989;28;48093;-87
2021/08/21 08:42:00;;;;;;;;;0.00;0.00;;;;;22.19;53.78;101195.75;5052590;28;45603;-86
2021/08/21 08:44:29;;;;;;;;;0.00;0.00;;;;;22.51;53.51;101230.91;5052952;28;45625;-82
2021/08/21 08:46:54;;;;;;;;;0.00;0.00;;;;;22.58;53.94;101238.69;5043022;28;45506;-84
2021/08/21 08:49:20;;;;;;;;;0.00;0.00;;;;;22.55;53.64;101220.19;5042831;28;45568;-82
2021/08/21 08:51:46;;;;;;;;;0.00;0.00;;;;;22.56;53.49;101217.50;5049870;28;45531;-82
2021/08/21 08:54:11;;;;;;;;;0.00;0.00;;;;;22.53;53.59;101204.34;5047090;28;45507;-85
2021/08/21 08:56:36;;;;;;;;;0.00;0.00;;;;;22.80;53.71;101227.34;5057840;27;45489;-91
2021/08/21 08:59:02;;;;;;;;;0.00;0.00;;;;;22.97;53.35;101243.53;5055996;28;47298;-84
2021/08/21 09:01:27;;;;;;;;;0.00;0.00;;;;;22.85;53.25;101212.13;5050329;28;45424;-79
2021/08/21 09:04:15;;;;;;;;;0.00;0.00;;;;;23.16;53.31;101253.50;5049516;28;45436;-77
2021/08/21 09:06:40;;;;;;;;;0.00;0.00;;;;;23.02;52.25;101224.78;5050231;28;45398;-78
2021/08/21 09:09:14;;;;;;;;;0.00;0.00;;;;;23.18;52.32;101251.63;5052813;28;46201;-79
2021/08/21 09:11:49;;;;;;;;;0.00;0.00;;;;;23.26;52.69;101251.34;5042870;28;45570;-79
2021/08/21 09:14:16;;;;;;;;;2.75;0.75;;;;;23.31;52.14;101249.41;5052367;28;45316;-78
2021/08/21 09:16:41;;;;;;;;;0.50;0.00;;;;;23.29;52.24;101244.16;5054955;28;45469;-78
2021/08/21 09:19:07;;;;;;;;;0.00;0.00;;;;;23.35;52.28;101252.81;5050566;28;45877;-79
2021/08/21 09:21:35;;;;;;;;;0.00;0.00;;;;;23.45;52.38;101251.56;5031301;28;50022;-77
2021/08/21 09:24:00;;;;;;;;;0.00;0.00;;;;;23.52;52.12;101250.41;5051661;28;45509;-81
2021/08/21 09:28:58;;;;;;;;;0.00;0.00;;;;;23.67;51.55;101251.63;5033436;28;45554;-79
2021/08/21 09:31:30;;;;;;;;;0.00;0.00;;;;;23.28;51.52;101164.53;5053733;28;45475;-79
2021/08/21 09:34:01;;;;;;;;;0.00;0.00;;;;;23.87;51.02;101255.31;5049495;28;45439;-81
2021/08/21 09:36:35;;;;;;;;;1.50;0.50;;;;;23.86;51.37;101239.41;5046701;28;45374;-80
2021/08/21 09:39:04;;;;;;;;;0.75;0.00;;;;;23.99;50.82;101243.31;5045881;28;45598;-81
2021/08/21 09:41:29;;;;;;;;;0.00;0.00;;;;;23.99;50.58;101223.81;5041320;28;45470;-79
2021/08/21 09:44:05;;;;;;;;;0.25;0.00;;;;;24.13;51.18;101239.28;5052305;28;45488;-82
2021/08/21 09:46:31;;;;;;;;;1.00;0.00;;;;;23.83;50.62;101168.63;5053104;28;48413;-78
2021/08/21 09:49:07;;;;;;;;;0.00;0.00;;;;;24.04;50.55;101206.75;5034090;28;48055;-81
2021/08/21 09:51:40;;;;;;;;;0.00;0.00;;;;;23.98;49.98;101187.53;5049559;28;45517;-81
2021/08/21 09:54:14;;;;;;;;;0.00;0.00;;;;;24.13;50.61;101192.25;5050499;28;45788;-80
2021/08/21 09:56:42;;;;;;;;;0.00;0.00;;;;;24.42;50.51;101226.53;5038657;28;45501;-84
2021/08/21 09:59:08;;;;;;;;;1.00;1.00;;;;;23.80;50.94;101118.25;5051604;28;46786;-85
2021/08/21 10:01:34;;;;;;;;;0.00;0.00;;;;;24.18;50.76;101162.81;5051534;28;45767;-88
2021/08/21 10:04:01;;;;;;;;;0.00;0.00;;;;;24.52;51.24;101219.91;5050044;28;45491;-84
2021/08/21 10:06:27;;;;;;;;;0.00;0.00;;;;;23.97;50.96;101133.50;5053133;28;45519;-84
2021/08/21 10:08:58;;;;;;;;;1.00;0.25;;;;;24.49;50.41;101217.38;5039448;28;45458;-80
2021/08/21 10:11:25;;;;;;;;;0.00;0.00;;;;;24.31;50.11;101195.06;5037134;28;45772;-81
2021/08/21 10:13:52;;;;;;;;;0.00;0.00;;;;;24.55;49.83;101233.06;5048896;28;45467;-85
2021/08/21 10:16:18;;;;;;;;;0.00;0.00;;;;;24.25;50.13;101177.56;5036582;28;45490;-86
2021/08/21 10:18:47;;;;;;;;;0.00;0.00;;;;;24.26;50.41;101179.28;5050386;28;45550;-85
2021/08/21 10:21:14;;;;;;;;;0.00;0.00;;;;;24.62;50.11;101223.03;5048316;28;45464;-85
2021/08/21 10:23:42;;;;;;;;;0.00;0.00;;;;;24.71;50.24;101231.56;5053739;28;45514;-87
2021/08/21 10:26:16;;;;;;;;;0.00;0.00;;;;;24.76;49.61;101227.75;5046492;28;45376;-86
2021/08/21 10:28:42;;;;;;;;;0.00;0.00;;;;;24.84;49.88;101221.22;5075445;28;48405;-91
2021/08/21 10:31:08;;;;;;;;;0.00;0.00;;;;;24.86;49.21;101220.22;5052247;28;45378;-91
2021/08/21 10:33:56;;;;;;;;;0.00;0.00;;;;;24.87;49.33;101219.31;5055065;28;45483;-90
2021/08/21 10:36:57;;;;;;;;;0.00;0.00;;;;;24.95;49.41;101218.97;5054776;28;45403;-87
2021/08/21 10:39:36;;;;;;;;;0.00;0.00;;;;;24.93;49.21;101197.75;5048636;28;45664;-88
2021/08/21 10:42:22;;;;;;;;;0.00;0.00;;;;;25.14;49.04;101213.69;5054176;28;45999;-91
2021/08/21 10:44:50;;;;;;;;;1.00;0.00;;;;;25.28;49.05;101215.72;5038915;28;45350;-92
2021/08/21 10:47:31;;;;;;;;;0.00;0.00;;;;;25.41;48.83;101207.16;5039786;28;45519;-90
2021/08/21 10:50:29;;;;;;;;;0.00;0.00;;;;;25.44;48.73;101207.00;5055475;28;47592;-91
2021/08/21 10:52:56;;;;;;;;;0.00;0.00;;;;;25.26;48.81;101184.75;5057793;28;45462;-85
2021/08/21 10:55:21;;;;;;;;;0.00;0.00;;;;;25.46;48.66;101210.47;5048914;28;45494;-84
2021/08/21 10:58:00;;;;;;;;;0.00;0.00;;;;;25.53;48.61;101209.25;5046368;28;45344;-86
2021/08/21 11:00:58;;;;;;;;;0.00;0.00;;;;;25.54;48.49;101202.97;5044339;28;45419;-82
2021/08/21 11:03:23;;;;;;;;;0.25;0.25;;;;;25.70;48.81;101207.63;5029335;28;45669;-82
2021/08/21 11:06:08;;;;;;;;;0.00;0.00;;;;;25.78;48.17;101209.88;5055407;28;45384;-82
2021/08/21 11:08:40;;;;;;;;;0.00;0.00;;;;;25.84;48.11;101200.75;5049506;28;45563;-85
2021/08/21 11:11:08;;;;;;;;;0.00;0.00;;;;;25.89;47.95;101207.59;5053285;28;45525;-87
2021/08/21 11:13:57;;;;;;;;;0.00;0.00;;;;;25.93;47.75;101208.28;5044068;28;45494;-84
2021/08/21 11:16:44;;;;;;;;;0.00;0.00;;;;;25.97;47.66;101207.19;5056807;28;45352;-83
2021/08/21 11:19:10;;;;;;;;;0.00;0.00;;;;;25.93;47.73;101201.16;5055647;28;45457;-79
2021/08/21 11:21:37;;;;;;;;;0.00;0.00;;;;;25.86;47.53;101191.72;5055530;28;45382;-81
2021/08/21 11:24:22;;;;;;;;;0.00;0.00;;;;;25.92;47.42;101202.09;5052267;28;46334;-85
2021/08/21 11:26:48;;;;;;;;;0.00;0.00;;;;;25.94;47.61;101204.69;5048785;28;45566;-85
2021/08/21 11:29:15;;;;;;;;;0.00;0.00;;;;;25.94;47.46;101210.88;5060465;28;45630;-84
2021/08/21 11:31:58;;;;;;;;;0.00;0.00;;;;;25.97;47.97;101207.19;5058016;28;46279;-81